Copper Creek, Canada
Current Conditions -  °F | °C
As of 1:00 PM on Tuesday 27 Jan 2015 (Local Time) from CYKA Reporting Station
Overcast Overcast  
Wind Chill:   Ceiling: 1100
Heat Index:   Visibility: 15mi
Dew Point:   Wind: 3mph
Humidity: 87%   Direction: 280°W
Pressure: 29.98"   Gusts: NA
Location:  50.8°N, 120.76°W
Report Text: CYKA 272100Z 28003KT 15SM BKN011 OVC020 03/01 A2998 RMK ST7SC1 SLP168
Loading
Personal Weather Stations






























Interactive Weather Map New forecast layout! Learn more

10-Day Weather Forecast

Advertisements
Track Severe Weather on mobile